Time;durP1;ratioP1;P1;durP2;ratioP2;P2;SDS_P1;SDS_P2;PMS_P1;PMS_P2;Temp;Humidity;BMP_temperature;BMP_pressure;BME280_temperature;BME280_humidity;BME280_pressure;Samples;Min_cycle;Max_cycle;Signal;HPM_P1;HPM_P2
2021/09/09 00:00:29;;;;;;;;;28.00;24.00;;;;;;;;5003519;28;46178;-79
2021/09/09 00:02:54;;;;;;;;;22.75;20.50;;;;;;;;5010564;28;45514;-79
2021/09/09 00:05:19;;;;;;;;;18.75;18.25;;;;;;;;5009298;28;45519;-79
2021/09/09 00:07:45;;;;;;;;;24.75;19.00;;;;;;;;5011498;28;45881;-79
2021/09/09 00:10:10;;;;;;;;;20.67;17.67;;;;;;;;4981870;28;45429;-79
2021/09/09 00:12:35;;;;;;;;;22.75;20.00;;;;;;;;5004649;28;45375;-79
2021/09/09 00:15:01;;;;;;;;;21.00;21.00;;;;;;;;5014544;28;45532;-79
2021/09/09 00:17:26;;;;;;;;;22.00;19.33;;;;;;;;5002034;28;45449;-79
2021/09/09 00:19:51;;;;;;;;;25.33;20.00;;;;;;;;5019270;28;46053;-79
2021/09/09 00:22:16;;;;;;;;;24.00;18.33;;;;;;;;5010098;28;45619;-79
2021/09/09 00:24:41;;;;;;;;;25.67;20.67;;;;;;;;5009675;28;45406;-79
2021/09/09 00:27:07;;;;;;;;;28.00;22.67;;;;;;;;5013081;28;47329;-79
2021/09/09 00:29:32;;;;;;;;;22.33;20.33;;;;;;;;5002915;28;45599;-79
2021/09/09 00:31:57;;;;;;;;;18.75;17.25;;;;;;;;5011881;28;45521;-79
2021/09/09 00:34:22;;;;;;;;;22.50;19.25;;;;;;;;5010768;28;45601;-79
2021/09/09 00:36:48;;;;;;;;;21.00;17.00;;;;;;;;5000850;28;45500;-79
2021/09/09 00:39:13;;;;;;;;;23.00;19.67;;;;;;;;5013218;28;48142;-79
2021/09/09 00:41:38;;;;;;;;;18.67;18.00;;;;;;;;5011059;28;45543;-79
2021/09/09 00:44:04;;;;;;;;;21.33;18.33;;;;;;;;5014295;28;45426;-79
2021/09/09 00:46:31;;;;;;;;;23.00;22.25;;;;;;;;5011313;28;45383;-79
2021/09/09 00:48:57;;;;;;;;;21.75;20.75;;;;;;;;5016825;28;45718;-79
2021/09/09 00:51:22;;;;;;;;;20.50;19.75;;;;;;;;5008901;28;45520;-79
2021/09/09 00:53:48;;;;;;;;;22.33;20.00;;;;;;;;5006567;28;45468;-79
2021/09/09 00:56:13;;;;;;;;;22.25;21.75;;;;;;;;5013546;28;45366;-79
2021/09/09 00:58:42;;;;;;;;;23.25;19.00;;;;;;;;5014899;28;46173;-79
2021/09/09 01:01:07;;;;;;;;;20.75;18.00;;;;;;;;5011531;28;45641;-79
2021/09/09 01:03:33;;;;;;;;;21.25;18.00;;;;;;;;5009320;28;45558;-79
2021/09/09 01:05:58;;;;;;;;;20.33;18.00;;;;;;;;5015278;28;46464;-79
2021/09/09 01:08:23;;;;;;;;;18.33;18.33;;;;;;;;5006548;28;45537;-79
2021/09/09 01:10:48;;;;;;;;;28.33;21.00;;;;;;;;5008382;28;45217;-79
2021/09/09 01:13:13;;;;;;;;;19.33;18.67;;;;;;;;5018925;28;45519;-79
2021/09/09 01:15:42;;;;;;;;;18.67;17.33;;;;;;;;4999645;28;45396;-79
2021/09/09 01:18:11;;;;;;;;;20.75;17.75;;;;;;;;5012324;28;45774;-79
2021/09/09 01:20:37;;;;;;;;;26.25;19.75;;;;;;;;5014994;28;45466;-79
2021/09/09 01:23:02;;;;;;;;;22.00;18.25;;;;;;;;5005115;28;45449;-79
2021/09/09 01:25:27;;;;;;;;;21.50;20.25;;;;;;;;5019716;28;45502;-79
2021/09/09 01:27:53;;;;;;;;;25.33;21.00;;;;;;;;4998073;28;48165;-79
2021/09/09 01:30:18;;;;;;;;;23.67;20.33;;;;;;;;5015318;28;45979;-79
2021/09/09 01:32:43;;;;;;;;;20.00;20.00;;;;;;;;5008410;28;45478;-79
2021/09/09 01:35:09;;;;;;;;;22.33;20.00;;;;;;;;5005909;28;45451;-79
2021/09/09 01:37:34;;;;;;;;;20.50;20.50;;;;;;;;5011894;28;45422;-79
2021/09/09 01:39:59;;;;;;;;;20.00;18.67;;;;;;;;5015131;28;45635;-79
2021/09/09 01:42:24;;;;;;;;;24.00;21.00;;;;;;;;5008108;28;45607;-79
2021/09/09 01:44:49;;;;;;;;;22.33;22.33;;;;;;;;5007375;28;45702;-78
2021/09/09 01:47:15;;;;;;;;;23.00;22.00;;;;;;;;5012251;28;46108;-79
2021/09/09 01:49:40;;;;;;;;;24.00;22.00;;;;;;;;5019530;28;45759;-79
2021/09/09 01:52:05;;;;;;;;;20.00;20.00;;;;;;;;5003503;28;45442;-78
2021/09/09 01:54:30;;;;;;;;;24.00;20.75;;;;;;;;5009878;28;45806;-79
2021/09/09 01:56:57;;;;;;;;;19.00;18.00;;;;;;;;5014374;28;45422;-79
2021/09/09 01:59:22;;;;;;;;;28.50;23.50;;;;;;;;5003448;28;45873;-79
2021/09/09 02:01:47;;;;;;;;;25.00;21.00;;;;;;;;5013684;28;45516;-79
2021/09/09 02:04:12;;;;;;;;;28.00;21.00;;;;;;;;5002457;28;45295;-80
2021/09/09 02:06:38;;;;;;;;;25.67;22.33;;;;;;;;5006062;28;45745;-79
2021/09/09 02:09:03;;;;;;;;;26.00;21.50;;;;;;;;5008071;28;45653;-79
2021/09/09 02:11:28;;;;;;;;;24.00;23.75;;;;;;;;5012597;28;45821;-79
2021/09/09 02:13:53;;;;;;;;;27.00;25.00;;;;;;;;5012834;28;45533;-79
2021/09/09 02:16:19;;;;;;;;;23.25;21.00;;;;;;;;5001071;28;46772;-79
2021/09/09 02:18:44;;;;;;;;;31.67;24.67;;;;;;;;5005718;28;45681;-79
2021/09/09 02:21:10;;;;;;;;;27.75;25.75;;;;;;;;5008055;28;45529;-79
2021/09/09 02:23:35;;;;;;;;;26.25;24.50;;;;;;;;4997609;28;45728;-79
2021/09/09 02:26:01;;;;;;;;;26.00;22.67;;;;;;;;5010997;28;46225;-79
2021/09/09 02:28:26;;;;;;;;;24.75;22.00;;;;;;;;5010135;28;45637;-79
2021/09/09 02:30:51;;;;;;;;;25.75;24.50;;;;;;;;5017559;28;45286;-78
2021/09/09 02:33:16;;;;;;;;;26.67;25.00;;;;;;;;5008640;28;45360;-79
2021/09/09 02:35:42;;;;;;;;;23.67;22.00;;;;;;;;5007976;28;46119;-78
2021/09/09 02:38:07;;;;;;;;;27.75;26.50;;;;;;;;5022229;28;45314;-78
2021/09/09 02:40:33;;;;;;;;;24.25;23.25;;;;;;;;5012418;28;48983;-78
2021/09/09 02:42:58;;;;;;;;;27.67;25.67;;;;;;;;5014163;28;45414;-78
2021/09/09 02:45:24;;;;;;;;;25.00;22.67;;;;;;;;5009226;28;46418;-78
2021/09/09 02:47:49;;;;;;;;;29.50;23.00;;;;;;;;5008371;28;45324;-79
2021/09/09 02:50:14;;;;;;;;;25.25;23.50;;;;;;;;5008231;28;45588;-78
2021/09/09 02:52:40;;;;;;;;;25.67;25.33;;;;;;;;5009607;28;45442;-79
2021/09/09 02:55:06;;;;;;;;;27.25;23.75;;;;;;;;5020288;28;45441;-78
2021/09/09 02:57:31;;;;;;;;;28.25;24.50;;;;;;;;5010027;28;45449;-79
2021/09/09 02:59:56;;;;;;;;;30.33;25.67;;;;;;;;5008356;28;45386;-78
2021/09/09 03:02:21;;;;;;;;;24.67;23.33;;;;;;;;5016559;28;45456;-78
2021/09/09 03:04:47;;;;;;;;;26.00;22.67;;;;;;;;5010858;28;45438;-79
2021/09/09 03:07:12;;;;;;;;;28.00;24.33;;;;;;;;5014647;28;45452;-79
2021/09/09 03:09:37;;;;;;;;;29.00;25.00;;;;;;;;5003463;28;45395;-78
2021/09/09 03:12:03;;;;;;;;;27.33;21.67;;;;;;;;5010196;28;45493;-79
2021/09/09 03:14:28;;;;;;;;;25.50;23.75;;;;;;;;5007471;28;45931;-78
2021/09/09 03:16:53;;;;;;;;;25.33;24.33;;;;;;;;5013815;28;45500;-78
2021/09/09 03:19:19;;;;;;;;;25.00;23.50;;;;;;;;5011986;28;45545;-78
2021/09/09 03:21:44;;;;;;;;;26.67;23.33;;;;;;;;5013279;28;45446;-78
2021/09/09 03:24:09;;;;;;;;;30.67;26.00;;;;;;;;5014103;28;45385;-78
2021/09/09 03:26:34;;;;;;;;;27.00;23.50;;;;;;;;5006596;28;45468;-78
2021/09/09 03:29:00;;;;;;;;;28.50;24.50;;;;;;;;5013598;28;45324;-78
2021/09/09 03:31:25;;;;;;;;;31.50;27.25;;;;;;;;5008023;28;45426;-78
2021/09/09 03:33:50;;;;;;;;;33.33;28.00;;;;;;;;5011542;28;45785;-78
2021/09/09 03:36:16;;;;;;;;;26.00;24.25;;;;;;;;5005746;28;45458;-78
2021/09/09 03:38:41;;;;;;;;;28.50;24.00;;;;;;;;5013425;28;45884;-79
2021/09/09 03:41:08;;;;;;;;;31.33;30.00;;;;;;;;5008056;28;45632;-78
2021/09/09 03:43:33;;;;;;;;;25.50;23.50;;;;;;;;5011531;28;46249;-78
2021/09/09 03:45:58;;;;;;;;;28.00;27.00;;;;;;;;5009617;28;45276;-80
2021/09/09 03:48:23;;;;;;;;;24.00;21.00;;;;;;;;5013981;28;45326;-79
2021/09/09 03:50:49;;;;;;;;;30.33;25.33;;;;;;;;5010436;28;45443;-79
2021/09/09 03:53:14;;;;;;;;;25.33;23.00;;;;;;;;5007052;28;47811;-79
2021/09/09 03:55:39;;;;;;;;;28.33;22.33;;;;;;;;5007121;28;45361;-79
2021/09/09 03:58:04;;;;;;;;;30.67;26.00;;;;;;;;5012521;28;45368;-79
2021/09/09 04:00:29;;;;;;;;;26.67;23.67;;;;;;;;5000823;28;45815;-79
2021/09/09 04:02:55;;;;;;;;;27.33;24.67;;;;;;;;5001393;28;45420;-79
2021/09/09 04:05:21;;;;;;;;;31.00;27.50;;;;;;;;5000183;28;46749;-79
2021/09/09 04:07:46;;;;;;;;;31.00;27.25;;;;;;;;5001633;28;46775;-79
2021/09/09 04:10:11;;;;;;;;;29.00;25.67;;;;;;;;5011347;28;45441;-80
2021/09/09 04:12:36;;;;;;;;;30.33;26.00;;;;;;;;5009731;28;46126;-79
2021/09/09 04:15:02;;;;;;;;;21.67;21.67;;;;;;;;5012532;28;45555;-79
2021/09/09 04:17:28;;;;;;;;;27.50;25.50;;;;;;;;5007803;28;45461;-79
2021/09/09 04:19:53;;;;;;;;;29.75;26.50;;;;;;;;5010878;28;45745;-79
2021/09/09 04:22:18;;;;;;;;;31.25;26.75;;;;;;;;5011843;28;46559;-79
2021/09/09 04:24:44;;;;;;;;;32.67;28.33;;;;;;;;5012347;28;45358;-79
2021/09/09 04:27:09;;;;;;;;;38.00;30.00;;;;;;;;5015415;28;45316;-79
2021/09/09 04:29:34;;;;;;;;;32.00;26.75;;;;;;;;5009459;28;45378;-79
2021/09/09 04:31:59;;;;;;;;;27.33;25.67;;;;;;;;5017723;28;45595;-79
2021/09/09 04:34:25;;;;;;;;;34.67;30.33;;;;;;;;5014520;28;45459;-79
2021/09/09 04:36:50;;;;;;;;;30.00;26.75;;;;;;;;5010562;28;45747;-79
2021/09/09 04:39:15;;;;;;;;;30.00;27.33;;;;;;;;5013161;28;45284;-79
2021/09/09 04:41:40;;;;;;;;;24.25;23.75;;;;;;;;5011637;28;45974;-79
2021/09/09 04:44:09;;;;;;;;;32.25;28.25;;;;;;;;5022116;28;45373;-79
2021/09/09 04:46:34;;;;;;;;;31.25;28.75;;;;;;;;5016191;28;45338;-80
2021/09/09 04:48:59;;;;;;;;;30.67;30.33;;;;;;;;5021780;28;45382;-79
2021/09/09 04:51:24;;;;;;;;;31.00;29.00;;;;;;;;5010278;28;45418;-79
2021/09/09 04:53:50;;;;;;;;;28.00;25.00;;;;;;;;5014796;28;45414;-79
2021/09/09 04:56:15;;;;;;;;;29.00;27.50;;;;;;;;5020399;28;45621;-79
2021/09/09 04:58:40;;;;;;;;;29.33;29.33;;;;;;;;5011511;28;45427;-79
2021/09/09 05:01:05;;;;;;;;;31.33;30.00;;;;;;;;5013917;28;47208;-79
2021/09/09 05:03:31;;;;;;;;;37.50;30.50;;;;;;;;5015912;28;45459;-79
2021/09/09 05:05:56;;;;;;;;;35.00;27.67;;;;;;;;5015508;28;45446;-79
2021/09/09 05:08:21;;;;;;;;;34.50;30.50;;;;;;;;5009519;28;45333;-79
2021/09/09 05:10:46;;;;;;;;;34.67;31.00;;;;;;;;5012937;28;47399;-79
2021/09/09 05:13:11;;;;;;;;;38.00;32.67;;;;;;;;5000729;28;45466;-79
2021/09/09 05:15:37;;;;;;;;;34.33;30.33;;;;;;;;5016169;28;45594;-79
2021/09/09 05:18:02;;;;;;;;;33.33;31.33;;;;;;;;5011714;28;45886;-79
2021/09/09 05:20:27;;;;;;;;;33.50;29.50;;;;;;;;5007909;28;47543;-79
2021/09/09 05:22:52;;;;;;;;;33.33;27.00;;;;;;;;5014531;28;45639;-80
2021/09/09 05:25:18;;;;;;;;;36.67;30.67;;;;;;;;5015082;28;45438;-79
2021/09/09 05:27:43;;;;;;;;;37.67;29.67;;;;;;;;5008788;28;45518;-80
2021/09/09 05:30:09;;;;;;;;;42.25;32.50;;;;;;;;5015344;28;46171;-80
2021/09/09 05:32:34;;;;;;;;;37.75;30.25;;;;;;;;5014227;28;45541;-79
2021/09/09 05:35:00;;;;;;;;;31.50;29.50;;;;;;;;5013234;28;45481;-79
2021/09/09 05:37:25;;;;;;;;;37.00;31.25;;;;;;;;5005619;28;45697;-79
2021/09/09 05:39:51;;;;;;;;;34.50;31.00;;;;;;;;5012708;28;45901;-79
2021/09/09 05:42:16;;;;;;;;;41.33;34.00;;;;;;;;5016471;28;45323;-79
2021/09/09 05:44:41;;;;;;;;;36.33;30.67;;;;;;;;5014221;28;45486;-79
2021/09/09 05:47:08;;;;;;;;;40.33;31.33;;;;;;;;5010099;28;45688;-79
2021/09/09 05:49:33;;;;;;;;;39.50;32.50;;;;;;;;5008760;28;45481;-79
2021/09/09 05:51:58;;;;;;;;;28.67;26.00;;;;;;;;5012100;28;45493;-78
2021/09/09 05:54:23;;;;;;;;;32.67;27.67;;;;;;;;5005861;28;45480;-76
2021/09/09 05:56:49;;;;;;;;;36.33;29.33;;;;;;;;5010826;28;45440;-79
2021/09/09 05:59:14;;;;;;;;;33.67;30.33;;;;;;;;5008536;28;46643;-79
2021/09/09 06:01:39;;;;;;;;;36.50;29.00;;;;;;;;5017583;28;45493;-79
2021/09/09 06:04:05;;;;;;;;;37.67;30.67;;;;;;;;5016402;28;45681;-80
2021/09/09 06:06:30;;;;;;;;;35.50;30.25;;;;;;;;5011115;28;45371;-78
2021/09/09 06:08:56;;;;;;;;;35.00;30.67;;;;;;;;5009653;28;45472;-79
2021/09/09 06:11:21;;;;;;;;;34.33;28.67;;;;;;;;5010823;28;45413;-79
2021/09/09 06:13:46;;;;;;;;;34.67;26.00;;;;;;;;5014761;28;45607;-79
2021/09/09 06:16:11;;;;;;;;;35.25;30.50;;;;;;;;5015305;28;45322;-79
2021/09/09 06:18:37;;;;;;;;;34.67;29.67;;;;;;;;5020592;28;45470;-79
2021/09/09 06:21:02;;;;;;;;;31.33;30.00;;;;;;;;5013604;28;45552;-79
2021/09/09 06:23:27;;;;;;;;;33.00;30.75;;;;;;;;5009814;28;45914;-79
2021/09/09 06:25:53;;;;;;;;;36.50;32.00;;;;;;;;5013101;28;45451;-79
2021/09/09 06:28:18;;;;;;;;;32.50;29.50;;;;;;;;5010974;28;45692;-79
2021/09/09 06:30:43;;;;;;;;;36.50;30.00;;;;;;;;5014672;28;45763;-79
2021/09/09 06:33:08;;;;;;;;;35.33;32.00;;;;;;;;5016603;28;45284;-79
2021/09/09 06:35:34;;;;;;;;;43.00;33.33;;;;;;;;5008948;28;45403;-79
2021/09/09 06:37:59;;;;;;;;;33.33;30.33;;;;;;;;5011641;28;47182;-79
2021/09/09 06:40:24;;;;;;;;;36.33;30.67;;;;;;;;5010677;28;45467;-79
2021/09/09 06:42:49;;;;;;;;;33.00;28.33;;;;;;;;5009535;28;45382;-79
2021/09/09 06:45:15;;;;;;;;;39.00;31.33;;;;;;;;5013030;28;45538;-79
2021/09/09 06:47:40;;;;;;;;;30.75;25.25;;;;;;;;5008213;28;45686;-78
2021/09/09 06:50:06;;;;;;;;;28.25;27.25;;;;;;;;5000254;28;45469;-79
2021/09/09 06:52:31;;;;;;;;;30.50;27.25;;;;;;;;5006428;28;45455;-79
2021/09/09 06:54:57;;;;;;;;;38.25;29.75;;;;;;;;5004139;28;45274;-78
2021/09/09 06:57:22;;;;;;;;;30.33;29.33;;;;;;;;5008851;28;46217;-79
2021/09/09 06:59:47;;;;;;;;;32.67;27.67;;;;;;;;5015501;28;45287;-79
2021/09/09 07:02:12;;;;;;;;;29.67;25.67;;;;;;;;5015173;28;45348;-79
2021/09/09 07:04:37;;;;;;;;;29.67;25.67;;;;;;;;5009854;28;45532;-79
2021/09/09 07:07:03;;;;;;;;;32.33;30.00;;;;;;;;5012136;28;47017;-79
2021/09/09 07:09:28;;;;;;;;;32.50;29.25;;;;;;;;5011304;28;45454;-79
2021/09/09 07:11:53;;;;;;;;;31.67;26.67;;;;;;;;5007352;28;45589;-79
2021/09/09 07:14:18;;;;;;;;;29.00;26.67;;;;;;;;5018370;28;45526;-79
2021/09/09 07:16:44;;;;;;;;;31.33;26.33;;;;;;;;5008421;28;46045;-79
2021/09/09 07:19:09;;;;;;;;;30.33;26.00;;;;;;;;5000376;28;45791;-79
2021/09/09 07:21:34;;;;;;;;;29.00;25.33;;;;;;;;5013333;28;45455;-79
2021/09/09 07:23:59;;;;;;;;;31.00;26.00;;;;;;;;4980826;28;45658;-78
2021/09/09 07:26:25;;;;;;;;;26.33;23.00;;;;;;;;5006228;28;45549;-80
2021/09/09 07:28:50;;;;;;;;;32.25;25.25;;;;;;;;5004967;28;45726;-78
2021/09/09 07:31:15;;;;;;;;;29.00;26.50;;;;;;;;5005223;28;45411;-86
2021/09/09 07:33:41;;;;;;;;;34.75;27.50;;;;;;;;5007715;28;45367;-78
2021/09/09 07:36:09;;;;;;;;;28.67;23.33;;;;;;;;5007751;28;46096;-79
2021/09/09 07:38:34;;;;;;;;;27.75;25.25;;;;;;;;5004437;28;45609;-79
2021/09/09 07:41:01;;;;;;;;;30.50;25.25;;;;;;;;5010588;28;45475;-79
2021/09/09 07:43:26;;;;;;;;;33.25;28.25;;;;;;;;5011201;28;45431;-78
2021/09/09 07:45:51;;;;;;;;;31.33;26.67;;;;;;;;5012199;28;46307;-80
2021/09/09 07:48:16;;;;;;;;;32.67;28.00;;;;;;;;5010763;28;45514;-79
2021/09/09 07:50:44;;;;;;;;;27.00;24.00;;;;;;;;5007568;28;45441;-79
2021/09/09 07:53:10;;;;;;;;;28.75;26.25;;;;;;;;5009104;28;45506;-79
2021/09/09 07:55:35;;;;;;;;;32.00;27.50;;;;;;;;5000870;28;45511;-78
2021/09/09 07:58:00;;;;;;;;;30.33;26.67;;;;;;;;5000010;28;45392;-79
2021/09/09 08:00:25;;;;;;;;;28.67;25.00;;;;;;;;5011107;28;46097;-79
2021/09/09 08:02:50;;;;;;;;;31.33;24.33;;;;;;;;5014517;28;45717;-79
2021/09/09 08:05:17;;;;;;;;;30.00;27.33;;;;;;;;5012644;28;45453;-78
2021/09/09 08:07:42;;;;;;;;;31.50;28.00;;;;;;;;5013158;28;45393;-79
2021/09/09 08:10:09;;;;;;;;;36.75;30.25;;;;;;;;5008736;28;45561;-79
2021/09/09 08:12:34;;;;;;;;;35.50;30.00;;;;;;;;5009665;28;45536;-79
2021/09/09 08:14:59;;;;;;;;;35.33;29.67;;;;;;;;5010790;28;46197;-79
2021/09/09 08:17:25;;;;;;;;;36.67;32.00;;;;;;;;5015914;28;45416;-79
2021/09/09 08:19:50;;;;;;;;;33.33;28.33;;;;;;;;5019592;28;45376;-79
2021/09/09 08:22:16;;;;;;;;;37.00;28.00;;;;;;;;5017314;28;45322;-79
2021/09/09 08:24:41;;;;;;;;;41.50;32.25;;;;;;;;5010575;28;45580;-79
2021/09/09 08:27:07;;;;;;;;;29.33;27.33;;;;;;;;5019026;28;45472;-79
2021/09/09 08:29:32;;;;;;;;;37.67;31.00;;;;;;;;5006780;28;45390;-79
2021/09/09 08:31:57;;;;;;;;;34.33;27.00;;;;;;;;5021161;28;45578;-79
2021/09/09 08:34:22;;;;;;;;;33.75;29.00;;;;;;;;5005981;28;45521;-79
2021/09/09 08:36:48;;;;;;;;;33.00;28.00;;;;;;;;5010350;28;45648;-79
2021/09/09 08:39:14;;;;;;;;;31.33;29.67;;;;;;;;5018981;28;45685;-79
2021/09/09 08:41:40;;;;;;;;;33.00;30.25;;;;;;;;5010090;28;46724;-79
2021/09/09 08:44:05;;;;;;;;;30.75;29.00;;;;;;;;5015520;28;46347;-79
2021/09/09 08:46:31;;;;;;;;;39.67;31.33;;;;;;;;5015087;28;45536;-78
2021/09/09 08:48:56;;;;;;;;;33.67;27.33;;;;;;;;5008734;28;45447;-79
2021/09/09 08:51:21;;;;;;;;;31.75;28.75;;;;;;;;5014853;28;45490;-79
2021/09/09 08:53:47;;;;;;;;;30.00;25.33;;;;;;;;5011282;28;45569;-79
2021/09/09 08:56:13;;;;;;;;;34.33;30.00;;;;;;;;5010250;28;45467;-78
2021/09/09 08:58:38;;;;;;;;;34.00;28.75;;;;;;;;5011332;28;45539;-79
2021/09/09 09:01:08;;;;;;;;;38.00;30.33;;;;;;;;5011926;28;45360;-79
2021/09/09 09:03:53;;;;;;;;;32.00;26.50;;;;;;;;5012201;28;46172;-79
2021/09/09 09:06:21;;;;;;;;;34.25;29.50;;;;;;;;5013143;28;45879;-79
2021/09/09 09:08:53;;;;;;;;;27.25;24.75;;;;;;;;5016052;28;45550;-79
2021/09/09 09:11:22;;;;;;;;;28.25;26.50;;;;;;;;5014157;28;45459;-79
2021/09/09 09:13:48;;;;;;;;;37.00;29.50;;;;;;;;5009722;28;46508;-79
2021/09/09 09:16:13;;;;;;;;;36.00;29.50;;;;;;;;5013576;28;45746;-79
2021/09/09 09:18:41;;;;;;;;;34.00;30.00;;;;;;;;5015262;28;45375;-79
2021/09/09 09:21:06;;;;;;;;;31.25;27.00;;;;;;;;5012891;28;45565;-79
2021/09/09 09:23:32;;;;;;;;;29.33;27.00;;;;;;;;5010947;28;45454;-79
2021/09/09 09:25:59;;;;;;;;;31.75;27.75;;;;;;;;5011131;28;45429;-79
2021/09/09 09:28:36;;;;;;;;;24.00;22.00;;;;;;;;5009722;28;45410;-78
2021/09/09 09:31:06;;;;;;;;;24.75;23.00;;;;;;;;4998836;28;45362;-79
2021/09/09 09:33:35;;;;;;;;;22.50;20.50;;;;;;;;5015455;28;45389;-78
2021/09/09 09:36:13;;;;;;;;;24.50;21.25;;;;;;;;5010059;28;45556;-80
2021/09/09 09:38:38;;;;;;;;;22.25;21.00;;;;;;;;5010941;28;45559;-79
2021/09/09 09:41:06;;;;;;;;;24.33;20.33;;;;;;;;5001030;28;45486;-80
2021/09/09 09:43:31;;;;;;;;;26.25;22.25;;;;;;;;4999695;28;45487;-77
2021/09/09 09:45:58;;;;;;;;;21.75;21.00;;;;;;;;4999332;28;45332;-80
2021/09/09 09:48:29;;;;;;;;;21.25;20.50;;;;;;;;5010373;28;45376;-80
2021/09/09 09:50:54;;;;;;;;;21.50;20.50;;;;;;;;5010560;28;45382;-80
2021/09/09 09:53:21;;;;;;;;;22.67;18.33;;;;;;;;5006613;28;49174;-80
2021/09/09 09:55:47;;;;;;;;;28.50;24.00;;;;;;;;5002227;28;45270;-80
2021/09/09 09:58:12;;;;;;;;;26.75;20.75;;;;;;;;5002378;28;45366;-79
2021/09/09 10:00:37;;;;;;;;;28.00;19.67;;;;;;;;5010434;28;45551;-79
2021/09/09 10:03:03;;;;;;;;;25.00;20.75;;;;;;;;5011744;28;45911;-80
2021/09/09 10:05:29;;;;;;;;;21.25;18.25;;;;;;;;5009302;28;45356;-80
2021/09/09 10:07:54;;;;;;;;;20.50;17.50;;;;;;;;5005275;28;45429;-79
2021/09/09 10:10:22;;;;;;;;;28.00;21.75;;;;;;;;5010933;28;45660;-80
2021/09/09 10:12:48;;;;;;;;;21.75;19.50;;;;;;;;4998185;28;46616;-79
2021/09/09 10:15:14;;;;;;;;;28.25;23.25;;;;;;;;5014363;28;45481;-79
2021/09/09 10:17:40;;;;;;;;;19.00;19.00;;;;;;;;5011115;28;45483;-80
2021/09/09 10:20:24;;;;;;;;;18.25;16.00;;;;;;;;5005625;28;45479;-80
2021/09/09 10:23:20;;;;;;;;;22.75;17.00;;;;;;;;5000256;28;45627;-77
2021/09/09 10:25:47;;;;;;;;;16.50;15.25;;;;;;;;4990455;28;45718;-80
2021/09/09 10:28:32;;;;;;;;;14.25;14.25;;;;;;;;5010197;28;45482;-79
2021/09/09 10:31:05;;;;;;;;;15.25;13.25;;;;;;;;5010008;28;45513;-79
2021/09/09 10:33:30;;;;;;;;;10.50;10.25;;;;;;;;5006980;28;46053;-79
2021/09/09 10:35:55;;;;;;;;;11.50;10.25;;;;;;;;5006174;28;45469;-79
2021/09/09 10:38:20;;;;;;;;;10.50;9.50;;;;;;;;5009412;28;45838;-79
2021/09/09 10:40:46;;;;;;;;;11.00;9.67;;;;;;;;5010131;28;45433;-79
2021/09/09 10:43:24;;;;;;;;;11.75;9.75;;;;;;;;5010087;28;46169;-79
2021/09/09 10:45:49;;;;;;;;;13.75;12.75;;;;;;;;5012591;28;45855;-79
2021/09/09 10:48:14;;;;;;;;;11.50;8.25;;;;;;;;5011550;28;45221;-79
2021/09/09 10:50:39;;;;;;;;;11.00;11.00;;;;;;;;5012633;28;51449;-79
2021/09/09 10:53:08;;;;;;;;;10.75;10.75;;;;;;;;5011762;28;46086;-79
2021/09/09 10:55:35;;;;;;;;;9.25;9.25;;;;;;;;5009732;28;45702;-79
2021/09/09 10:58:15;;;;;;;;;10.50;10.50;;;;;;;;5001525;28;45418;-79
2021/09/09 11:00:49;;;;;;;;;11.00;11.00;;;;;;;;5007899;28;45601;-79
2021/09/09 11:03:33;;;;;;;;;13.00;9.00;;;;;;;;5013494;28;45566;-78
2021/09/09 11:05:58;;;;;;;;;8.50;7.50;;;;;;;;5004722;28;46042;-76
2021/09/09 11:08:27;;;;;;;;;7.75;7.75;;;;;;;;5005219;28;45463;-78
2021/09/09 11:10:52;;;;;;;;;6.25;6.25;;;;;;;;5012529;28;45510;-79
2021/09/09 11:13:24;;;;;;;;;6.50;5.00;;;;;;;;5005272;28;49782;-77
2021/09/09 11:15:50;;;;;;;;;5.00;4.00;;;;;;;;5009883;28;45958;-77
2021/09/09 11:18:22;;;;;;;;;4.50;4.50;;;;;;;;5014844;28;45747;-76
2021/09/09 11:20:48;;;;;;;;;4.50;4.25;;;;;;;;5011349;28;45449;-78
2021/09/09 11:23:13;;;;;;;;;3.25;3.25;;;;;;;;5010844;28;46105;-79
2021/09/09 11:25:38;;;;;;;;;2.00;2.00;;;;;;;;5003040;28;45457;-76
2021/09/09 11:28:14;;;;;;;;;1.75;1.75;;;;;;;;5001488;28;45557;-78
2021/09/09 11:30:40;;;;;;;;;2.75;1.00;;;;;;;;5008899;28;45673;-79
2021/09/09 11:33:06;;;;;;;;;2.00;0.75;;;;;;;;5007769;28;45453;-77
2021/09/09 11:35:31;;;;;;;;;1.75;1.75;;;;;;;;5007135;28;45596;-79
2021/09/09 11:37:56;;;;;;;;;2.75;2.75;;;;;;;;5003660;28;45505;-79
2021/09/09 11:40:21;;;;;;;;;3.00;1.00;;;;;;;;5005316;28;45449;-79
2021/09/09 11:42:47;;;;;;;;;1.33;1.33;;;;;;;;5008034;28;52565;-77
2021/09/09 11:45:12;;;;;;;;;1.00;1.00;;;;;;;;5012814;28;45518;-77
2021/09/09 11:47:37;;;;;;;;;1.00;1.00;;;;;;;;5007269;28;46017;-80
2021/09/09 11:50:04;;;;;;;;;2.00;2.00;;;;;;;;4997949;28;45510;-79
2021/09/09 11:52:29;;;;;;;;;0.25;0.25;;;;;;;;5000885;28;45737;-79
2021/09/09 11:54:54;;;;;;;;;1.75;1.75;;;;;;;;4997729;28;45460;-77
2021/09/09 11:57:19;;;;;;;;;2.00;2.00;;;;;;;;5004955;28;45472;-79
2021/09/09 11:59:57;;;;;;;;;1.00;1.00;;;;;;;;5006239;28;45449;-79
2021/09/09 12:02:24;;;;;;;;;1.00;1.00;;;;;;;;5007093;28;48241;-79
2021/09/09 12:04:50;;;;;;;;;1.00;1.00;;;;;;;;5008128;28;45564;-79
2021/09/09 12:07:19;;;;;;;;;1.00;1.00;;;;;;;;5006748;28;45508;-79
2021/09/09 12:10:03;;;;;;;;;1.00;1.00;;;;;;;;5002494;28;45560;-79
2021/09/09 12:12:31;;;;;;;;;0.75;0.75;;;;;;;;5012181;28;45481;-78
2021/09/09 12:14:59;;;;;;;;;0.00;0.00;;;;;;;;5010213;28;45268;-78
2021/09/09 12:17:25;;;;;;;;;2.00;2.00;;;;;;;;5009112;28;45342;-79
2021/09/09 12:20:20;;;;;;;;;1.00;1.00;;;;;;;;5000474;28;45497;-79
2021/09/09 12:22:56;;;;;;;;;0.25;0.00;;;;;;;;5001822;28;47701;-79
2021/09/09 12:25:21;;;;;;;;;0.00;0.00;;;;;;;;5006472;28;45463;-79
2021/09/09 12:27:54;;;;;;;;;0.00;0.00;;;;;;;;4999088;28;45548;-78
2021/09/09 12:30:45;;;;;;;;;0.50;0.00;;;;;;;;4992183;28;45413;-78
2021/09/09 12:33:21;;;;;;;;;0.00;0.00;;;;;;;;5004597;28;45434;-79
2021/09/09 12:36:04;;;;;;;;;0.00;0.00;;;;;;;;4999630;28;45859;-79
2021/09/09 12:38:31;;;;;;;;;0.50;0.00;;;;;;;;4999543;28;45619;-79
2021/09/09 12:40:56;;;;;;;;;0.00;0.00;;;;;;;;4999702;28;45609;-79
2021/09/09 12:43:32;;;;;;;;;0.00;0.00;;;;;;;;5001944;28;45795;-78
2021/09/09 12:45:58;;;;;;;;;0.00;0.00;;;;;;;;4997614;28;45734;-77
2021/09/09 12:48:24;;;;;;;;;0.00;0.00;;;;;;;;5007633;28;46645;-77
2021/09/09 12:50:55;;;;;;;;;0.00;0.00;;;;;;;;5006803;28;45462;-77
2021/09/09 12:53:20;;;;;;;;;0.00;0.00;;;;;;;;5000699;28;45488;-77
2021/09/09 12:55:46;;;;;;;;;1.00;0.00;;;;;;;;5003515;28;45497;-77
2021/09/09 12:58:12;;;;;;;;;0.00;0.00;;;;;;;;5012252;28;45622;-77
2021/09/09 13:00:37;;;;;;;;;1.00;0.00;;;;;;;;5016025;28;45514;-77
2021/09/09 13:03:02;;;;;;;;;0.00;0.00;;;;;;;;5010828;28;46657;-77
2021/09/09 13:05:28;;;;;;;;;1.00;0.00;;;;;;;;5011826;28;45456;-77
2021/09/09 13:07:53;;;;;;;;;0.00;0.00;;;;;;;;5009925;28;45446;-77
2021/09/09 13:10:18;;;;;;;;;0.00;0.00;;;;;;;;5005432;28;45608;-77
2021/09/09 13:12:43;;;;;;;;;2.00;0.00;;;;;;;;5013058;28;45704;-77
2021/09/09 13:15:09;;;;;;;;;0.00;0.00;;;;;;;;5025690;28;45491;-78
2021/09/09 13:17:34;;;;;;;;;0.00;0.00;;;;;;;;5005499;28;45544;-79
2021/09/09 13:19:59;;;;;;;;;0.00;0.00;;;;;;;;5004433;28;45296;-77
2021/09/09 13:22:24;;;;;;;;;0.33;0.00;;;;;;;;5010256;28;45419;-77
2021/09/09 13:24:50;;;;;;;;;1.00;0.00;;;;;;;;5009414;28;45581;-77
2021/09/09 13:27:15;;;;;;;;;0.00;0.00;;;;;;;;5013609;28;45280;-77
2021/09/09 13:29:40;;;;;;;;;2.00;0.00;;;;;;;;5004777;28;45577;-77
2021/09/09 13:32:05;;;;;;;;;0.00;0.00;;;;;;;;5008465;28;46460;-77
2021/09/09 13:34:30;;;;;;;;;0.00;0.00;;;;;;;;5009424;28;45576;-80
2021/09/09 13:36:56;;;;;;;;;0.00;0.00;;;;;;;;4997551;28;46481;-77
2021/09/09 13:39:21;;;;;;;;;0.00;0.00;;;;;;;;5010956;28;45459;-78
2021/09/09 13:41:46;;;;;;;;;0.00;0.00;;;;;;;;5008550;28;47522;-78
2021/09/09 13:44:11;;;;;;;;;0.00;0.00;;;;;;;;5010906;28;45562;-78
2021/09/09 13:46:38;;;;;;;;;0.00;0.00;;;;;;;;5008113;28;45438;-79
2021/09/09 13:49:03;;;;;;;;;0.50;0.00;;;;;;;;5001829;28;45564;-78
2021/09/09 13:51:28;;;;;;;;;2.67;0.00;;;;;;;;5012121;28;46375;-78
2021/09/09 13:53:54;;;;;;;;;0.67;0.00;;;;;;;;5007591;28;45681;-79
2021/09/09 13:56:19;;;;;;;;;0.00;0.00;;;;;;;;5009113;28;45644;-79
2021/09/09 13:58:45;;;;;;;;;1.00;0.00;;;;;;;;5001281;28;45457;-78
2021/09/09 14:01:11;;;;;;;;;0.00;0.00;;;;;;;;5015908;28;47078;-78
2021/09/09 14:03:36;;;;;;;;;0.00;0.00;;;;;;;;5010163;28;45284;-78
2021/09/09 14:06:02;;;;;;;;;1.00;0.00;;;;;;;;5008955;28;45484;-78
2021/09/09 14:08:27;;;;;;;;;0.00;0.00;;;;;;;;5005037;28;45426;-78
2021/09/09 14:10:52;;;;;;;;;1.00;0.00;;;;;;;;5000961;28;46363;-79
2021/09/09 14:13:17;;;;;;;;;1.00;0.00;;;;;;;;5018384;28;45508;-79
2021/09/09 14:15:43;;;;;;;;;0.00;0.00;;;;;;;;5000573;28;45435;-79
2021/09/09 14:18:12;;;;;;;;;0.00;0.00;;;;;;;;5012398;28;45485;-79